createdAt,value
2023-02-03T00:01:00.501Z,99.99
2023-02-03T00:01:52.020Z,99.99
2023-02-03T00:02:52.009Z,99.99
2023-02-03T00:03:51.945Z,99.99
2023-02-03T00:04:51.969Z,99.99
2023-02-03T00:05:51.924Z,99.99
2023-02-03T00:06:51.912Z,99.99
2023-02-03T00:07:51.893Z,99.99
2023-02-03T00:08:51.884Z,99.99
2023-02-03T00:09:51.903Z,99.99
2023-02-03T00:10:51.871Z,99.99
2023-02-03T00:11:51.892Z,99.99
2023-02-03T00:12:51.835Z,99.99
2023-02-03T00:13:51.852Z,99.99
2023-02-03T00:14:51.814Z,99.99
2023-02-03T00:15:51.843Z,99.99
2023-02-03T00:16:51.804Z,99.99
2023-02-03T00:17:51.794Z,99.99
2023-02-03T00:18:51.794Z,99.99
2023-02-03T00:19:51.811Z,99.99
2023-02-03T00:20:51.744Z,99.99
2023-02-03T00:21:51.751Z,99.99
2023-02-03T00:22:51.725Z,99.99
2023-02-03T00:23:51.716Z,99.99
2023-02-03T00:24:51.898Z,99.99
2023-02-03T00:25:51.715Z,99.99
2023-02-03T00:26:51.686Z,99.99
2023-02-03T00:27:51.730Z,99.99
2023-02-03T00:28:51.669Z,99.99
2023-02-03T00:29:51.673Z,99.99
2023-02-03T00:30:51.639Z,99.99
2023-02-03T00:31:51.719Z,99.99
2023-02-03T00:32:51.625Z,99.99
2023-02-03T00:33:51.612Z,99.99
2023-02-03T00:34:51.601Z,99.99
2023-02-03T00:35:51.608Z,99.99
2023-02-03T00:36:51.581Z,99.99
2023-02-03T00:37:51.584Z,99.99
2023-02-03T00:38:51.590Z,99.99
2023-02-03T00:39:51.578Z,99.99
2023-02-03T00:40:51.542Z,99.99
2023-02-03T00:41:51.544Z,99.99
2023-02-03T00:42:51.513Z,99.99
2023-02-03T00:43:51.526Z,99.99
2023-02-03T00:44:51.481Z,99.99
2023-02-03T00:45:51.516Z,99.99
2023-02-03T00:46:51.462Z,99.99
2023-02-03T00:47:51.466Z,99.99
2023-02-03T00:48:51.468Z,99.99
2023-02-03T00:49:51.454Z,99.99
2023-02-03T00:50:51.441Z,99.99
2023-02-03T00:51:51.450Z,99.99
2023-02-03T00:52:51.415Z,99.99
2023-02-03T00:53:51.428Z,99.99
2023-02-03T00:54:51.626Z,99.99
2023-02-03T00:55:51.454Z,99.99
2023-02-03T00:56:51.370Z,99.99
2023-02-03T00:57:51.345Z,99.99
2023-02-03T00:58:51.335Z,99.99
2023-02-03T00:59:51.390Z,99.99
2023-02-03T01:00:51.335Z,99.99
2023-02-03T01:01:51.470Z,99.99
2023-02-03T01:02:51.292Z,99.99
2023-02-03T01:03:51.350Z,99.99
2023-02-03T01:04:51.290Z,99.99
2023-02-03T01:05:51.302Z,99.99
2023-02-03T01:06:51.244Z,99.99
2023-02-03T01:07:51.254Z,99.99
2023-02-03T01:08:51.235Z,99.99
2023-02-03T01:09:51.235Z,99.81
2023-02-03T01:10:51.206Z,99.97
2023-02-03T01:11:51.215Z,99.77
2023-02-03T01:12:51.184Z,99.77
2023-02-03T01:13:51.205Z,99.77
2023-02-03T01:14:51.216Z,99.66
2023-02-03T01:15:51.170Z,99.35
2023-02-03T01:16:51.184Z,99.25
2023-02-03T01:17:51.153Z,99.35
2023-02-03T01:18:51.127Z,99.77
2023-02-03T01:19:51.143Z,99.99
2023-02-03T01:20:51.107Z,99.91
2023-02-03T01:21:51.099Z,99.66
2023-02-03T01:22:51.103Z,99.56
2023-02-03T01:23:51.078Z,99.35
2023-02-03T01:24:51.071Z,99.15
2023-02-03T01:25:51.078Z,99.05
2023-02-03T01:26:51.184Z,99.35
2023-02-03T01:27:51.085Z,99.66
2023-02-03T01:28:51.034Z,99.77
2023-02-03T01:29:51.053Z,99.46
2023-02-03T01:30:51.045Z,99.25
2023-02-03T01:31:51.185Z,99.46
2023-02-03T01:32:50.969Z,99.35
2023-02-03T01:33:50.985Z,99.25
2023-02-03T01:34:50.975Z,99.25
2023-02-03T01:35:50.948Z,99.15
2023-02-03T01:36:50.922Z,99.25
2023-02-03T01:37:50.939Z,99.05
2023-02-03T01:38:50.893Z,98.94
2023-02-03T01:39:50.939Z,98.53
2023-02-03T01:40:50.888Z,98.53
2023-02-03T01:41:50.887Z,98.43
2023-02-03T01:42:50.859Z,98.53
2023-02-03T01:43:50.878Z,98.63
2023-02-03T01:44:50.838Z,98.84
2023-02-03T01:45:50.866Z,98.53
2023-02-03T01:46:50.817Z,98.43
2023-02-03T01:47:50.848Z,98.43
2023-02-03T01:48:50.823Z,98.43
2023-02-03T01:49:50.798Z,97.91
2023-02-03T01:50:50.773Z,97.71
2023-02-03T01:51:50.784Z,97.30
2023-02-03T01:52:50.750Z,97.61
2023-02-03T01:53:50.766Z,97.71
2023-02-03T01:54:50.734Z,97.61
2023-02-03T01:55:50.749Z,97.81
2023-02-03T01:56:50.705Z,98.12
2023-02-03T01:57:50.783Z,98.33
2023-02-03T01:58:50.682Z,98.33
2023-02-03T01:59:50.694Z,98.43
2023-02-03T02:00:50.684Z,98.63
2023-02-03T02:01:50.714Z,98.53
2023-02-03T02:02:50.725Z,97.91
2023-02-03T02:03:50.658Z,97.40
2023-02-03T02:04:50.639Z,97.81
2023-02-03T02:05:50.636Z,98.02
2023-02-03T02:06:50.615Z,98.22
2023-02-03T02:07:50.645Z,98.12
2023-02-03T02:08:50.589Z,98.22
2023-02-03T02:09:50.574Z,98.02
2023-02-03T02:10:50.571Z,97.91
2023-02-03T02:11:50.552Z,98.02
2023-02-03T02:12:50.543Z,97.91
2023-02-03T02:13:50.551Z,98.02
2023-02-03T02:14:50.532Z,98.02
2023-02-03T02:15:50.592Z,98.02
2023-02-03T02:16:50.516Z,98.22
2023-02-03T02:17:50.527Z,98.33
2023-02-03T02:18:50.487Z,98.37
2023-02-03T02:19:50.503Z,98.16
2023-02-03T02:20:50.485Z,98.22
2023-02-03T02:21:50.453Z,98.37
2023-02-03T02:22:50.484Z,98.47
2023-02-03T02:23:50.462Z,98.27
2023-02-03T02:24:50.437Z,98.37
2023-02-03T02:25:50.414Z,97.71
2023-02-03T02:26:50.412Z,97.71
2023-02-03T02:27:50.436Z,97.40
2023-02-03T02:28:50.576Z,97.30
2023-02-03T02:29:50.397Z,97.50
2023-02-03T02:30:50.488Z,97.81
2023-02-03T02:31:50.442Z,98.12
2023-02-03T02:32:50.326Z,98.12
2023-02-03T02:33:50.312Z,98.02
2023-02-03T02:34:50.319Z,98.12
2023-02-03T02:35:50.301Z,98.12
2023-02-03T02:36:50.288Z,97.71
2023-02-03T02:37:50.317Z,97.61
2023-02-03T02:38:50.267Z,97.61
2023-02-03T02:39:50.239Z,97.40
2023-02-03T02:40:50.266Z,97.09
2023-02-03T02:41:50.224Z,97.19
2023-02-03T02:42:50.237Z,97.40
2023-02-03T02:43:50.187Z,97.40
2023-02-03T02:44:50.206Z,97.40
2023-02-03T02:45:50.179Z,97.09
2023-02-03T02:46:50.188Z,97.09
2023-02-03T02:47:50.139Z,97.19
2023-02-03T02:48:50.155Z,97.40
2023-02-03T02:49:50.149Z,97.19
2023-02-03T02:50:50.129Z,96.78
2023-02-03T02:51:50.130Z,96.89
2023-02-03T02:52:50.136Z,96.89
2023-02-03T02:53:50.094Z,96.68
2023-02-03T02:54:50.114Z,96.68
2023-02-03T02:55:50.068Z,96.89
2023-02-03T02:56:50.067Z,96.47
2023-02-03T02:57:50.047Z,96.47
2023-02-03T02:58:50.072Z,96.47
2023-02-03T02:59:50.070Z,96.22
2023-02-03T03:00:50.028Z,96.53
2023-02-03T03:01:50.038Z,96.78
2023-02-03T03:02:50.021Z,96.78
2023-02-03T03:03:49.988Z,96.89
2023-02-03T03:04:50.043Z,96.99
2023-02-03T03:05:50.069Z,96.58
2023-02-03T03:06:50.649Z,96.58
2023-02-03T03:13:46.549Z,96.58
2023-02-03T03:14:46.537Z,96.58
2023-02-03T03:15:48.611Z,96.68
2023-02-03T03:16:46.492Z,96.58
2023-02-03T03:17:46.484Z,96.47
2023-02-03T03:18:46.478Z,96.47
2023-02-03T03:19:46.474Z,96.27
2023-02-03T03:20:46.465Z,96.17
2023-02-03T03:21:46.464Z,96.06
2023-02-03T03:22:46.448Z,96.17
2023-02-03T03:23:46.422Z,96.27
2023-02-03T03:24:46.421Z,96.27
2023-02-03T03:25:46.405Z,96.17
2023-02-03T03:26:46.392Z,95.86
2023-02-03T03:27:46.459Z,95.75
2023-02-03T03:28:46.356Z,95.65
2023-02-03T03:29:46.353Z,95.45
2023-02-03T03:30:46.518Z,95.61
2023-02-03T03:31:46.406Z,95.75
2023-02-03T03:32:46.324Z,95.75
2023-02-03T03:33:46.321Z,95.75
2023-02-03T03:34:46.297Z,95.96
2023-02-03T03:35:46.299Z,96.06
2023-02-03T03:36:46.271Z,96.06
2023-02-03T03:37:46.288Z,95.86
2023-02-03T03:38:46.276Z,95.96
2023-02-03T03:39:46.263Z,95.96
2023-02-03T03:40:46.213Z,95.86
2023-02-03T03:41:46.247Z,95.55
2023-02-03T03:42:46.282Z,95.34
2023-02-03T03:43:46.213Z,95.09
2023-02-03T03:44:46.197Z,95.14
2023-02-03T03:45:46.205Z,94.89
2023-02-03T03:46:46.200Z,95.03
2023-02-03T03:47:46.150Z,94.99
2023-02-03T03:48:46.160Z,95.24
2023-02-03T03:49:46.145Z,95.24
2023-02-03T03:50:46.137Z,95.34
2023-02-03T03:51:46.785Z,95.55
2023-02-03T03:52:46.100Z,95.65
2023-02-03T03:53:46.120Z,95.65
2023-02-03T03:54:46.071Z,95.75
2023-02-03T03:55:46.139Z,95.75
2023-02-03T03:56:46.082Z,95.24
2023-02-03T03:57:46.067Z,94.78
2023-02-03T03:58:46.765Z,94.99
2023-02-03T03:59:46.221Z,95.20
2023-02-03T04:00:46.418Z,95.24
2023-02-03T04:01:46.340Z,94.58
2023-02-03T04:02:46.144Z,94.48
2023-02-03T04:03:45.990Z,94.58
2023-02-03T04:04:45.973Z,94.58
2023-02-03T04:05:45.955Z,94.68
2023-02-03T04:06:45.944Z,94.78
2023-02-03T04:07:45.984Z,94.58
2023-02-03T04:08:45.910Z,94.48
2023-02-03T04:09:45.919Z,94.37
2023-02-03T04:10:45.889Z,94.48
2023-02-03T04:11:45.921Z,94.27
2023-02-03T04:12:45.885Z,94.17
2023-02-03T04:13:45.882Z,93.76
2023-02-03T04:14:45.828Z,93.96
2023-02-03T04:15:45.909Z,94.07
2023-02-03T04:16:45.849Z,94.17
2023-02-03T04:17:45.869Z,94.58
2023-02-03T04:18:45.827Z,94.27
2023-02-03T04:19:45.821Z,94.37
2023-02-03T04:20:45.814Z,94.07
2023-02-03T04:21:45.779Z,93.86
2023-02-03T04:22:45.797Z,93.65
2023-02-03T04:23:45.768Z,93.65
2023-02-03T04:24:45.797Z,93.55
2023-02-03T04:25:45.771Z,93.55
2023-02-03T04:26:45.719Z,93.35
2023-02-03T04:27:45.774Z,93.24
2023-02-03T04:28:45.721Z,93.35
2023-02-03T04:29:45.776Z,93.24
2023-02-03T04:30:45.730Z,92.83
2023-02-03T04:31:45.798Z,93.04
2023-02-03T04:32:45.922Z,92.93
2023-02-03T04:33:45.693Z,93.24
2023-02-03T04:34:45.661Z,93.14
2023-02-03T04:35:45.651Z,92.93
2023-02-03T04:36:45.652Z,92.83
2023-02-03T04:37:45.615Z,92.52
2023-02-03T04:38:45.603Z,92.63
2023-02-03T04:39:45.621Z,92.73
2023-02-03T04:40:45.583Z,92.73
2023-02-03T04:41:45.567Z,92.52
2023-02-03T04:42:45.583Z,92.42
2023-02-03T04:43:45.552Z,92.32
2023-02-03T04:44:45.543Z,92.52
2023-02-03T04:45:45.573Z,92.63
2023-02-03T04:46:45.504Z,92.52
2023-02-03T04:47:45.517Z,92.63
2023-02-03T04:48:45.510Z,92.52
2023-02-03T04:49:45.489Z,92.32
2023-02-03T04:50:45.457Z,92.01
2023-02-03T04:51:45.493Z,91.91
2023-02-03T04:52:45.607Z,92.11
2023-02-03T04:53:45.652Z,92.21
2023-02-03T04:54:45.621Z,92.01
2023-02-03T04:55:45.639Z,92.01
2023-02-03T04:56:45.542Z,92.21
2023-02-03T04:57:45.483Z,92.11
2023-02-03T04:58:45.511Z,92.11
2023-02-03T04:59:50.335Z,92.32
2023-02-03T05:00:46.058Z,92.32
2023-02-03T05:01:48.334Z,91.70
2023-02-03T05:02:45.404Z,91.60
2023-02-03T05:03:45.531Z,91.80
2023-02-03T05:04:45.576Z,92.21
2023-02-03T05:05:45.366Z,92.21
2023-02-03T05:06:45.409Z,92.01
2023-02-03T05:07:45.332Z,91.91
2023-02-03T05:08:45.455Z,92.11
2023-02-03T05:09:45.381Z,92.21
2023-02-03T05:10:45.248Z,92.52
2023-02-03T05:11:45.254Z,92.32
2023-02-03T05:12:45.238Z,92.21
2023-02-03T05:13:45.224Z,92.11
2023-02-03T05:14:45.206Z,92.32
2023-02-03T05:15:45.222Z,92.42
2023-02-03T05:16:46.387Z,92.32
2023-02-03T05:17:45.400Z,91.80
2023-02-03T05:18:45.415Z,91.91
2023-02-03T05:19:45.322Z,92.11
2023-02-03T05:20:45.193Z,92.21
2023-02-03T05:21:45.173Z,92.42
2023-02-03T05:22:45.129Z,92.52
2023-02-03T05:23:45.140Z,92.42
2023-02-03T05:24:45.107Z,92.52
2023-02-03T05:25:45.111Z,92.52
2023-02-03T05:26:45.087Z,92.52
2023-02-03T05:27:45.144Z,92.32
2023-02-03T05:28:45.059Z,91.91
2023-02-03T05:29:45.051Z,91.80
2023-02-03T05:30:45.048Z,92.11
2023-02-03T05:31:45.101Z,91.91
2023-02-03T05:32:45.008Z,92.21
2023-02-03T05:33:45.029Z,92.32
2023-02-03T05:34:45.089Z,92.32
2023-02-03T05:35:44.988Z,92.52
2023-02-03T05:36:44.997Z,92.42
2023-02-03T05:37:44.965Z,92.21
2023-02-03T05:38:44.934Z,92.42
2023-02-03T05:39:44.987Z,92.52
2023-02-03T05:40:44.923Z,92.32
2023-02-03T05:41:44.921Z,92.42
2023-02-03T05:42:44.928Z,92.32
2023-02-03T05:43:44.907Z,92.42
2023-02-03T05:44:44.893Z,92.32
2023-02-03T05:45:44.975Z,92.32
2023-02-03T05:46:44.846Z,92.42
2023-02-03T05:47:44.880Z,92.32
2023-02-03T05:48:44.848Z,91.80
2023-02-03T05:49:44.883Z,91.91
2023-02-03T05:50:44.812Z,91.91
2023-02-03T05:51:44.819Z,92.11
2023-02-03T05:52:44.820Z,92.01
2023-02-03T05:53:44.817Z,92.21
2023-02-03T05:54:44.837Z,92.63
2023-02-03T05:55:44.767Z,92.32
2023-02-03T05:56:44.772Z,92.52
2023-02-03T05:57:44.737Z,92.63
2023-02-03T05:58:44.732Z,92.83
2023-02-03T05:59:44.821Z,93.04
2023-02-03T06:00:44.993Z,93.55
2023-02-03T06:01:44.785Z,93.76
2023-02-03T06:02:44.715Z,94.17
2023-02-03T06:03:46.314Z,94.48
2023-02-03T06:04:44.680Z,94.78
2023-02-03T06:05:44.719Z,95.40
2023-02-03T06:06:44.637Z,96.17
2023-02-03T06:07:44.649Z,96.58
2023-02-03T06:08:44.643Z,97.19
2023-02-03T06:09:44.622Z,97.71
2023-02-03T06:10:44.623Z,97.91
2023-02-03T06:11:44.627Z,98.06
2023-02-03T06:12:44.579Z,98.16
2023-02-03T06:13:44.844Z,98.27
2023-02-03T06:14:44.568Z,98.68
2023-02-03T06:15:44.559Z,98.99
2023-02-03T06:16:44.616Z,99.30
2023-02-03T06:17:44.584Z,99.81
2023-02-03T06:18:44.513Z,99.99
2023-02-03T06:19:44.558Z,99.99
2023-02-03T06:20:44.504Z,99.99
2023-02-03T06:21:44.503Z,99.99
2023-02-03T06:22:44.496Z,99.99
2023-02-03T06:23:44.474Z,99.99
2023-02-03T06:24:44.472Z,99.99
2023-02-03T06:25:44.500Z,99.99
2023-02-03T06:26:44.486Z,99.99
2023-02-03T06:27:44.468Z,99.99
2023-02-03T06:28:44.419Z,99.99
2023-02-03T06:29:44.438Z,99.99
2023-02-03T06:30:44.489Z,99.99
2023-02-03T06:31:44.464Z,99.99
2023-02-03T06:32:44.371Z,99.99
2023-02-03T06:33:44.360Z,99.99
2023-02-03T06:34:44.369Z,99.99
2023-02-03T06:35:44.369Z,99.99
2023-02-03T06:36:44.590Z,99.99
2023-02-03T06:37:44.337Z,99.99
2023-02-03T06:38:44.343Z,99.99
2023-02-03T06:39:44.296Z,99.99
2023-02-03T06:40:44.287Z,99.99
2023-02-03T06:41:44.265Z,99.99
2023-02-03T06:42:44.270Z,99.99
2023-02-03T06:43:44.261Z,99.99
2023-02-03T06:44:44.219Z,99.99
2023-02-03T06:45:44.240Z,99.99
2023-02-03T06:46:44.211Z,99.99
2023-02-03T06:47:44.212Z,99.99
2023-02-03T06:48:44.176Z,99.99
2023-02-03T06:49:44.168Z,99.99
2023-02-03T06:50:44.170Z,99.99
2023-02-03T06:51:44.274Z,99.99
2023-02-03T06:52:44.171Z,99.99
2023-02-03T06:53:44.166Z,99.99
2023-02-03T06:54:44.160Z,99.99
2023-02-03T06:55:44.103Z,99.99
2023-02-03T06:56:44.128Z,99.99
2023-02-03T06:57:44.098Z,99.99
2023-02-03T06:58:44.107Z,99.99
2023-02-03T06:59:44.064Z,99.99
2023-02-03T07:00:44.073Z,99.99
2023-02-03T07:01:44.079Z,99.99
2023-02-03T07:02:44.088Z,99.99
2023-02-03T07:03:44.026Z,99.99
2023-02-03T07:04:44.043Z,99.99
2023-02-03T07:05:44.005Z,99.99
2023-02-03T07:06:43.997Z,99.99
2023-02-03T07:07:44.039Z,99.99
2023-02-03T07:08:43.973Z,99.99
2023-02-03T07:09:44.013Z,99.99
2023-02-03T07:10:43.978Z,99.99
2023-02-03T07:11:43.937Z,99.99
2023-02-03T07:12:43.933Z,99.99
2023-02-03T07:13:43.930Z,99.99
2023-02-03T07:14:43.897Z,99.99
2023-02-03T07:15:43.936Z,99.99
2023-02-03T07:16:43.899Z,99.99
2023-02-03T07:17:43.870Z,99.99
2023-02-03T07:18:47.235Z,99.99
2023-02-03T07:19:45.961Z,99.99
2023-02-03T07:20:43.856Z,99.99
2023-02-03T07:21:43.830Z,99.99
2023-02-03T07:22:43.861Z,99.99
2023-02-03T07:23:43.810Z,99.99
2023-02-03T07:24:44.770Z,99.99
2023-02-03T07:25:43.787Z,99.99
2023-02-03T07:26:43.773Z,99.99
2023-02-03T07:27:43.802Z,99.99
2023-02-03T07:28:43.780Z,99.99
2023-02-03T07:29:43.740Z,99.99
2023-02-03T07:30:43.772Z,99.99
2023-02-03T07:31:43.835Z,99.99
2023-02-03T07:32:43.710Z,99.99
2023-02-03T07:33:43.721Z,99.99
2023-02-03T07:34:43.697Z,99.99
2023-02-03T07:35:43.680Z,99.99
2023-02-03T07:36:43.682Z,99.99
2023-02-03T07:37:43.660Z,99.99
2023-02-03T07:38:43.742Z,99.99
2023-02-03T07:39:43.631Z,99.99
2023-02-03T07:40:43.619Z,99.99
2023-02-03T07:41:43.612Z,99.99
2023-02-03T07:42:43.621Z,99.99
2023-02-03T07:43:43.579Z,99.99
2023-02-03T07:44:43.602Z,99.99
2023-02-03T07:45:43.592Z,99.99
2023-02-03T07:46:43.627Z,99.99
2023-02-03T07:47:43.549Z,99.99
2023-02-03T07:48:43.541Z,99.99
2023-02-03T07:49:43.513Z,99.99
2023-02-03T07:50:43.524Z,99.99
2023-02-03T07:51:43.503Z,99.99
2023-02-03T07:52:43.501Z,99.99
2023-02-03T07:53:43.506Z,99.99
2023-02-03T07:54:43.484Z,99.99
2023-02-03T07:55:43.462Z,99.99
2023-02-03T07:56:43.468Z,99.99
2023-02-03T07:57:43.657Z,99.99
2023-02-03T07:58:43.483Z,99.99
2023-02-03T07:59:43.477Z,99.99
2023-02-03T08:00:43.415Z,99.99
2023-02-03T08:01:43.495Z,99.99
2023-02-03T08:02:43.392Z,99.99
2023-02-03T08:03:43.380Z,99.99
2023-02-03T08:04:43.422Z,99.99
2023-02-03T08:05:43.370Z,99.99
2023-02-03T08:06:43.638Z,99.99
2023-02-03T08:07:43.417Z,99.99
2023-02-03T08:08:43.331Z,99.99
2023-02-03T08:09:43.338Z,99.99
2023-02-03T08:10:43.358Z,99.99
2023-02-03T08:11:43.279Z,99.99
2023-02-03T08:12:45.108Z,99.99
2023-02-03T08:13:43.287Z,99.99
2023-02-03T08:14:43.271Z,99.99
2023-02-03T08:15:43.249Z,99.99
2023-02-03T08:16:43.293Z,99.99
2023-02-03T08:17:43.235Z,99.99
2023-02-03T08:18:43.218Z,99.99
2023-02-03T08:19:43.192Z,99.99
2023-02-03T08:20:43.192Z,99.99
2023-02-03T08:21:43.191Z,99.99
2023-02-03T08:22:43.186Z,99.99
2023-02-03T08:23:43.373Z,99.99
2023-02-03T08:24:43.174Z,99.99
2023-02-03T08:25:43.132Z,99.99
2023-02-03T08:26:43.127Z,99.99
2023-02-03T08:27:43.167Z,99.99
2023-02-03T08:28:43.089Z,99.99
2023-02-03T08:29:43.094Z,99.99
2023-02-03T08:30:43.093Z,99.99
2023-02-03T08:31:43.226Z,99.99
2023-02-03T08:32:43.107Z,99.99
2023-02-03T08:33:43.444Z,99.99
2023-02-03T08:34:43.191Z,99.99
2023-02-03T08:35:43.051Z,99.99
2023-02-03T08:36:42.997Z,99.99
2023-02-03T08:37:43.051Z,99.99
2023-02-03T08:38:43.018Z,99.99
2023-02-03T08:39:52.012Z,99.99
2023-02-03T08:40:44.697Z,99.99
2023-02-03T08:41:44.715Z,99.99
2023-02-03T08:42:43.004Z,99.99
2023-02-03T08:43:42.969Z,99.99
2023-02-03T08:44:43.891Z,99.99
2023-02-03T08:45:42.949Z,99.99
2023-02-03T08:46:42.897Z,99.99
2023-02-03T08:47:42.898Z,99.99
2023-02-03T08:48:42.936Z,99.99
2023-02-03T08:49:42.870Z,99.99
2023-02-03T08:50:42.887Z,99.99
2023-02-03T08:51:42.845Z,99.99
2023-02-03T08:52:43.406Z,99.99
2023-02-03T08:53:42.824Z,99.99
2023-02-03T08:54:42.825Z,99.99
2023-02-03T08:55:42.804Z,99.99
2023-02-03T08:56:42.811Z,99.99
2023-02-03T08:57:42.785Z,99.99
2023-02-03T08:58:42.788Z,99.99
2023-02-03T08:59:42.772Z,99.99
2023-02-03T09:00:42.801Z,99.99
2023-02-03T09:01:42.803Z,99.99
2023-02-03T09:02:42.750Z,99.99
2023-02-03T09:03:42.723Z,99.99
2023-02-03T09:04:42.740Z,99.99
2023-02-03T09:05:42.688Z,99.99
2023-02-03T09:06:42.888Z,99.99
2023-02-03T09:07:42.718Z,99.99
2023-02-03T09:08:42.704Z,99.99
2023-02-03T09:09:42.649Z,99.99
2023-02-03T09:10:42.701Z,99.99
2023-02-03T09:11:42.658Z,99.99
2023-02-03T09:12:42.881Z,99.99
2023-02-03T09:13:42.608Z,99.99
2023-02-03T09:14:42.606Z,99.99
2023-02-03T09:15:43.119Z,99.99
2023-02-03T09:16:42.595Z,99.99
2023-02-03T09:17:42.568Z,99.99
2023-02-03T09:18:43.143Z,99.99
2023-02-03T09:19:42.580Z,99.99
2023-02-03T09:20:42.744Z,99.99
2023-02-03T09:21:47.290Z,99.99
2023-02-03T09:22:43.528Z,99.99
2023-02-03T09:23:42.502Z,99.99
2023-02-03T09:24:42.504Z,99.99
2023-02-03T09:25:45.918Z,99.99
2023-02-03T09:26:42.479Z,99.99
2023-02-03T09:27:42.516Z,99.99
2023-02-03T09:28:42.453Z,99.99
2023-02-03T09:29:42.491Z,99.99
2023-02-03T09:30:42.946Z,99.99
2023-02-03T09:31:42.460Z,99.99
2023-02-03T09:32:42.429Z,99.99
2023-02-03T09:33:42.477Z,99.99
2023-02-03T09:34:42.395Z,99.99
2023-02-03T09:35:42.373Z,99.99
2023-02-03T09:36:43.214Z,99.99
2023-02-03T09:37:42.352Z,99.99
2023-02-03T09:38:42.375Z,99.99
2023-02-03T09:39:42.332Z,99.99
2023-02-03T09:40:42.328Z,99.99
2023-02-03T09:41:42.415Z,99.99
2023-02-03T09:42:42.309Z,99.99
2023-02-03T09:43:42.292Z,99.99
2023-02-03T09:44:42.278Z,99.99
2023-02-03T09:45:42.274Z,99.99
2023-02-03T09:46:42.254Z,99.99
2023-02-03T09:47:42.242Z,99.99
2023-02-03T09:48:42.247Z,99.99
2023-02-03T09:49:42.235Z,99.99
2023-02-03T09:50:42.225Z,99.99
2023-02-03T09:51:42.192Z,99.99
2023-02-03T09:52:42.187Z,99.99
2023-02-03T09:53:42.169Z,99.99
2023-02-03T09:54:42.168Z,99.99
2023-02-03T09:55:42.160Z,99.99
2023-02-03T09:56:42.138Z,99.99
2023-02-03T09:57:42.132Z,99.99
2023-02-03T09:58:42.170Z,99.99
2023-02-03T09:59:42.135Z,99.99
2023-02-03T10:00:42.124Z,99.99
2023-02-03T10:01:42.169Z,99.99
2023-02-03T10:02:42.130Z,99.99
2023-02-03T10:03:42.085Z,99.99
2023-02-03T10:04:42.075Z,99.99
2023-02-03T10:05:42.106Z,99.99
2023-02-03T10:06:42.057Z,99.99
2023-02-03T10:07:42.260Z,99.99
2023-02-03T10:08:42.041Z,99.99
2023-02-03T10:09:42.091Z,99.99
2023-02-03T10:10:42.015Z,99.99
2023-02-03T10:11:41.971Z,99.99
2023-02-03T10:12:42.023Z,99.99
2023-02-03T10:13:41.966Z,99.99
2023-02-03T10:14:41.957Z,99.99
2023-02-03T10:15:41.942Z,99.99
2023-02-03T10:16:41.974Z,99.99
2023-02-03T10:17:41.921Z,99.99
2023-02-03T10:18:41.917Z,99.99
2023-02-03T10:19:41.923Z,99.99
2023-02-03T10:20:41.922Z,99.99
2023-02-03T10:21:41.875Z,99.99
2023-02-03T10:22:41.959Z,99.99
2023-02-03T10:23:41.855Z,99.99
2023-02-03T10:24:41.856Z,99.99
2023-02-03T10:25:41.820Z,99.99
2023-02-03T10:26:41.809Z,99.99
2023-02-03T10:27:41.848Z,99.99
2023-02-03T10:28:41.809Z,99.99
2023-02-03T10:29:41.801Z,99.99
2023-02-03T10:30:42.627Z,99.99
2023-02-03T10:31:42.684Z,99.99
2023-02-03T10:32:41.748Z,99.99
2023-02-03T10:33:41.738Z,99.99
2023-02-03T10:34:41.753Z,99.99
2023-02-03T10:35:41.727Z,99.99
2023-02-03T10:36:41.707Z,99.99
2023-02-03T10:37:41.728Z,99.99
2023-02-03T10:38:41.684Z,99.99
2023-02-03T10:39:41.737Z,99.99
2023-02-03T10:40:41.750Z,99.99
2023-02-03T10:41:41.663Z,99.99
2023-02-03T10:42:41.676Z,99.99
2023-02-03T10:43:42.395Z,99.99
2023-02-03T10:44:41.667Z,99.99
2023-02-03T10:45:41.652Z,99.99
2023-02-03T10:46:41.621Z,99.99
2023-02-03T10:47:41.587Z,99.99
2023-02-03T10:48:41.591Z,99.99
2023-02-03T10:49:43.415Z,99.99
2023-02-03T10:50:41.588Z,99.99
2023-02-03T10:51:41.543Z,99.99
2023-02-03T10:52:41.524Z,99.99
2023-02-03T10:53:41.510Z,99.99
2023-02-03T10:54:41.522Z,99.99
2023-02-03T10:55:41.483Z,99.99
2023-02-03T10:56:41.594Z,99.99
2023-02-03T10:57:41.494Z,99.99
2023-02-03T10:58:41.469Z,99.99
2023-02-03T10:59:41.543Z,99.99
2023-02-03T11:00:41.440Z,99.99
2023-02-03T11:01:41.537Z,99.99
2023-02-03T11:02:41.569Z,99.99
2023-02-03T11:03:41.422Z,99.99
2023-02-03T11:04:41.420Z,99.99
2023-02-03T11:05:43.358Z,99.99
2023-02-03T11:06:41.407Z,99.99
2023-02-03T11:07:41.393Z,99.99
2023-02-03T11:08:41.394Z,99.99
2023-02-03T11:09:41.383Z,99.99
2023-02-03T11:10:41.324Z,99.99
2023-02-03T11:11:41.335Z,99.97
2023-02-03T11:12:41.300Z,98.12
2023-02-03T11:13:41.316Z,97.71
2023-02-03T11:14:41.351Z,96.78
2023-02-03T11:15:41.371Z,97.19
2023-02-03T11:16:44.308Z,96.06
2023-02-03T11:17:41.252Z,96.78
2023-02-03T11:18:41.246Z,96.58
2023-02-03T11:19:41.256Z,96.47
2023-02-03T11:20:41.219Z,95.45
2023-02-03T11:21:41.221Z,95.34
2023-02-03T11:22:41.197Z,95.34
2023-02-03T11:23:41.236Z,94.42
2023-02-03T11:24:41.326Z,94.73
2023-02-03T11:25:41.180Z,93.70
2023-02-03T11:26:41.213Z,93.80
2023-02-03T11:27:41.183Z,94.83
2023-02-03T11:28:41.424Z,95.24
2023-02-03T11:29:41.136Z,95.45
2023-02-03T11:30:41.174Z,96.06
2023-02-03T11:31:41.226Z,96.58
2023-02-03T11:32:41.113Z,97.19
2023-02-03T11:33:41.088Z,97.15
2023-02-03T11:34:41.086Z,98.18
2023-02-03T11:35:41.081Z,98.18
2023-02-03T11:36:41.040Z,97.87
2023-02-03T11:37:41.071Z,98.49
2023-02-03T11:38:41.039Z,98.49
2023-02-03T11:39:41.040Z,99.10
2023-02-03T11:40:41.012Z,98.38
2023-02-03T11:41:41.020Z,98.65
2023-02-03T11:42:40.987Z,98.65
2023-02-03T11:43:40.997Z,98.24
2023-02-03T11:44:40.968Z,98.44
2023-02-03T11:45:41.066Z,98.44
2023-02-03T11:46:40.985Z,97.62
2023-02-03T11:47:40.954Z,97.47
2023-02-03T11:48:40.958Z,96.95
2023-02-03T11:49:40.925Z,96.03
2023-02-03T11:50:40.895Z,96.14
2023-02-03T11:51:40.906Z,95.31
2023-02-03T11:52:40.868Z,95.52
2023-02-03T11:53:55.235Z,95.52
2023-02-03T11:54:41.850Z,95.52
2023-02-03T11:55:40.869Z,95.01
2023-02-03T11:56:40.843Z,94.76
2023-02-03T11:57:40.892Z,94.34
2023-02-03T11:58:40.799Z,94.24
2023-02-03T11:59:40.816Z,93.93
2023-02-03T12:00:40.787Z,94.24
2023-02-03T12:01:40.792Z,94.34
2023-02-03T12:02:40.804Z,94.24
2023-02-03T12:03:40.755Z,92.70
2023-02-03T12:04:40.828Z,92.29
2023-02-03T12:05:40.763Z,93.21
2023-02-03T12:06:40.723Z,91.99
2023-02-03T12:07:40.737Z,91.99
2023-02-03T12:08:40.703Z,92.55
2023-02-03T12:09:40.696Z,90.77
2023-02-03T12:10:40.687Z,90.16
2023-02-03T12:11:40.684Z,90.71
2023-02-03T12:12:40.658Z,90.81
2023-02-03T12:13:40.645Z,90.20
2023-02-03T12:14:40.690Z,91.22
2023-02-03T12:15:40.639Z,90.81
2023-02-03T12:16:40.715Z,91.42
2023-02-03T12:17:40.607Z,90.81
2023-02-03T12:18:40.605Z,90.71
2023-02-03T12:19:40.599Z,91.33
2023-02-03T12:20:40.592Z,91.33
2023-02-03T12:21:40.561Z,91.84
2023-02-03T12:22:40.552Z,91.22
2023-02-03T12:23:40.589Z,91.63
2023-02-03T12:24:40.542Z,91.53
2023-02-03T12:25:40.524Z,91.42
2023-02-03T12:26:40.495Z,91.88
2023-02-03T12:27:42.173Z,91.57
2023-02-03T12:28:40.532Z,91.67
2023-02-03T12:29:40.470Z,91.47
2023-02-03T12:30:40.469Z,91.47
2023-02-03T12:31:40.523Z,91.37
2023-02-03T12:32:40.439Z,90.14
2023-02-03T12:33:40.454Z,91.02
2023-02-03T12:34:40.429Z,89.58
2023-02-03T12:35:40.429Z,88.86
2023-02-03T12:36:40.395Z,88.66
2023-02-03T12:37:40.396Z,87.53
2023-02-03T12:38:40.385Z,87.63
2023-02-03T12:39:40.403Z,88.14
2023-02-03T12:40:40.345Z,87.84
2023-02-03T12:41:40.354Z,87.84
2023-02-03T12:42:40.321Z,87.63
2023-02-03T12:43:40.399Z,87.59
2023-02-03T12:44:40.306Z,87.79
2023-02-03T12:45:40.328Z,87.28
2023-02-03T12:46:40.295Z,87.59
2023-02-03T12:47:40.402Z,87.38
2023-02-03T12:48:40.256Z,86.15
2023-02-03T12:49:40.261Z,84.61
2023-02-03T12:50:40.261Z,85.74
2023-02-03T12:51:40.332Z,85.44
2023-02-03T12:52:40.204Z,84.92
2023-02-03T12:53:40.214Z,84.52
2023-02-03T12:54:40.204Z,84.72
2023-02-03T12:55:40.197Z,84.41
2023-02-03T12:56:40.170Z,85.23
2023-02-03T12:57:40.185Z,85.23
2023-02-03T12:58:40.169Z,84.20